Time;durP1;ratioP1;P1;durP2;ratioP2;P2;SDS_P1;SDS_P2;PMS_P1;PMS_P2;Temp;Humidity;BMP_temperature;BMP_pressure;BME280_temperature;BME280_humidity;BME280_pressure;Samples;Min_cycle;Max_cycle;Signal;HPM_P1;HPM_P2
2020/12/23 00:00:06;;;;;;;38.77;22.13;;;7.10;99.90;;;;;;4486017;27;656719;-62
2020/12/23 00:02:53;;;;;;;39.77;22.10;;;7.10;99.90;;;;;;4464401;27;656803;-63
2020/12/23 00:05:40;;;;;;;42.87;21.53;;;7.10;99.90;;;;;;4489871;27;655456;-62
2020/12/23 00:08:27;;;;;;;25.43;12.33;;;7.00;99.90;;;;;;4470298;27;655504;-62
2020/12/23 00:11:15;;;;;;;42.37;23.63;;;7.20;99.90;;;;;;4502151;27;656941;-62
2020/12/23 00:14:02;;;;;;;46.30;24.07;;;7.00;99.90;;;;;;4470743;27;656072;-62
2020/12/23 00:16:50;;;;;;;17.97;9.13;;;7.00;99.90;;;;;;4495483;27;656871;-62
2020/12/23 00:19:37;;;;;;;43.57;23.40;;;7.20;99.90;;;;;;4472536;27;654540;-63
2020/12/23 00:22:25;;;;;;;16.75;9.30;;;7.10;99.90;;;;;;4506970;27;656057;-62
2020/12/23 00:25:12;;;;;;;46.72;24.33;;;7.10;99.90;;;;;;4460677;27;654677;-64
2020/12/23 00:28:00;;;;;;;39.23;21.70;;;7.20;99.90;;;;;;4497173;27;656913;-62
2020/12/23 00:30:47;;;;;;;43.37;24.87;;;7.10;99.90;;;;;;4471449;27;655590;-64
2020/12/23 00:33:35;;;;;;;42.67;24.20;;;7.10;99.90;;;;;;4501514;27;656158;-62
2020/12/23 00:36:22;;;;;;;45.47;23.10;;;7.10;99.90;;;;;;4477910;27;655593;-63
2020/12/23 00:39:10;;;;;;;40.43;23.10;;;7.10;99.90;;;;;;4497444;27;656268;-62
2020/12/23 00:41:57;;;;;;;48.00;23.03;;;7.00;99.90;;;;;;4481365;27;656271;-64
2020/12/23 00:44:44;;;;;;;42.47;23.33;;;7.00;99.90;;;;;;4491076;27;656420;-62
2020/12/23 00:47:31;;;;;;;42.80;23.93;;;7.00;99.90;;;;;;4481522;27;655733;-63
2020/12/23 00:50:19;;;;;;;45.87;24.93;;;7.10;99.90;;;;;;4459311;27;655911;-62
2020/12/23 00:53:06;;;;;;;29.52;16.50;;;7.00;99.90;;;;;;4488984;27;655453;-62
2020/12/23 00:55:53;;;;;;;29.70;16.97;;;7.10;99.90;;;;;;4466916;27;655319;-64
2020/12/23 00:58:40;;;;;;;42.33;22.40;;;7.10;99.90;;;;;;4488765;27;655496;-62
2020/12/23 01:01:27;;;;;;;40.70;23.07;;;7.10;99.90;;;;;;4475679;27;655414;-62
2020/12/23 01:04:14;;;;;;;42.40;23.37;;;7.10;99.90;;;;;;4483602;27;657315;-62
2020/12/23 01:07:03;;;;;;;39.03;22.73;;;7.00;99.90;;;;;;4491370;27;655492;-66
2020/12/23 01:09:50;;;;;;;46.20;24.93;;;6.90;99.90;;;;;;4490657;27;657375;-62
2020/12/23 01:12:37;;;;;;;42.30;23.27;;;6.90;99.90;;;;;;4481568;27;655491;-64
2020/12/23 01:15:24;;;;;;;37.72;20.65;;;6.90;99.90;;;;;;4495638;27;655240;-63
2020/12/23 01:18:11;;;;;;;38.33;20.13;;;7.00;99.90;;;;;;4481960;27;655823;-62
2020/12/23 01:20:57;;;;;;;39.50;21.63;;;7.10;99.90;;;;;;4475755;27;655881;-64
2020/12/23 01:23:45;;;;;;;39.73;21.80;;;7.00;99.90;;;;;;4494747;27;655924;-62
2020/12/23 01:26:32;;;;;;;41.50;23.00;;;7.10;99.90;;;;;;4478430;27;655215;-63
2020/12/23 01:29:19;;;;;;;45.33;24.63;;;7.00;99.90;;;;;;4480109;27;656813;-62
2020/12/23 01:32:07;;;;;;;42.40;24.50;;;6.90;99.90;;;;;;4485560;27;655504;-65
2020/12/23 01:34:53;;;;;;;34.57;18.10;;;6.90;99.90;;;;;;4486322;27;655252;-62
2020/12/23 01:37:41;;;;;;;41.47;22.80;;;6.90;99.90;;;;;;4496114;27;655209;-63
2020/12/23 01:40:28;;;;;;;42.00;21.40;;;7.10;99.90;;;;;;4466667;27;655518;-64
2020/12/23 01:43:15;;;;;;;40.27;21.50;;;7.00;99.90;;;;;;4497982;27;656596;-62
2020/12/23 01:46:02;;;;;;;42.13;23.87;;;7.10;99.90;;;;;;4478124;27;655599;-63
2020/12/23 01:48:49;;;;;;;37.30;21.13;;;7.00;99.90;;;;;;4497171;27;656904;-63
2020/12/23 01:51:36;;;;;;;41.67;23.90;;;7.10;99.90;;;;;;4482560;27;655286;-63
2020/12/23 01:54:23;;;;;;;45.20;24.37;;;7.00;99.90;;;;;;4473989;27;655534;-63
2020/12/23 01:57:11;;;;;;;40.70;22.53;;;6.90;99.90;;;;;;4488654;27;657906;-62
2020/12/23 01:59:58;;;;;;;41.73;23.30;;;7.00;99.90;;;;;;4477921;27;655783;-63
2020/12/23 02:02:45;;;;;;;35.30;20.73;;;7.00;99.90;;;;;;4491136;27;656507;-62
2020/12/23 02:05:32;;;;;;;35.37;20.63;;;7.20;99.90;;;;;;4481012;27;655467;-65
2020/12/23 02:08:19;;;;;;;34.00;18.77;;;7.10;99.90;;;;;;4495921;27;656083;-63
2020/12/23 02:11:05;;;;;;;17.60;10.40;;;7.10;99.90;;;;;;4499714;27;655573;-62
2020/12/23 02:13:53;;;;;;;36.13;19.00;;;7.10;99.90;;;;;;4456666;27;655491;-63
2020/12/23 02:16:40;;;;;;;30.43;16.20;;;7.20;99.90;;;;;;4500488;27;655754;-62
2020/12/23 02:19:27;;;;;;;30.90;17.57;;;7.20;99.90;;;;;;4475075;27;655616;-62
2020/12/23 02:22:14;;;;;;;39.17;19.93;;;7.10;99.90;;;;;;4502806;27;656890;-63
2020/12/23 02:25:03;;;;;;;33.13;18.67;;;7.00;99.90;;;;;;4488102;27;655855;-64
2020/12/23 02:27:49;;;;;;;36.33;19.23;;;7.20;99.90;;;;;;4500008;27;656171;-63
2020/12/23 02:30:37;;;;;;;31.63;17.65;;;7.20;99.90;;;;;;4470980;27;655674;-65
2020/12/23 02:33:24;;;;;;;39.47;19.87;;;7.20;99.90;;;;;;4491037;27;654990;-63
2020/12/23 02:36:10;;;;;;;39.70;20.67;;;7.10;99.90;;;;;;4494594;27;656344;-62
2020/12/23 02:38:57;;;;;;;42.90;20.90;;;7.00;99.90;;;;;;4473142;27;655330;-63
2020/12/23 02:41:45;;;;;;;41.40;21.83;;;7.00;99.90;;;;;;4490155;27;656771;-63
2020/12/23 02:44:32;;;;;;;37.17;19.80;;;7.00;99.90;;;;;;4480797;27;655593;-64
2020/12/23 02:47:20;;;;;;;36.33;20.10;;;7.20;99.90;;;;;;4500457;27;656993;-62
2020/12/23 02:50:07;;;;;;;37.93;19.57;;;7.10;99.90;;;;;;4469813;27;656211;-63
2020/12/23 02:52:54;;;;;;;40.57;21.30;;;7.20;99.90;;;;;;4492736;27;656715;-62
2020/12/23 02:55:42;;;;;;;38.70;20.80;;;7.00;99.90;;;;;;4495194;27;655283;-65
2020/12/23 02:58:30;;;;;;;31.67;14.82;;;7.10;99.90;;;;;;4498903;27;655061;-62
2020/12/23 03:01:17;;;;;;;37.33;19.90;;;7.20;99.90;;;;;;4481960;27;656004;-64
2020/12/23 03:04:04;;;;;;;39.90;20.93;;;7.10;99.90;;;;;;4485242;27;655036;-62
2020/12/23 03:06:51;;;;;;;36.70;20.47;;;7.00;99.90;;;;;;4501722;27;655239;-63
2020/12/23 03:09:37;;;;;;;38.73;19.83;;;7.10;99.90;;;;;;4466778;27;655994;-63
2020/12/23 03:12:25;;;;;;;44.03;21.40;;;7.10;99.90;;;;;;4501000;27;655912;-63
2020/12/23 03:15:13;;;;;;;36.95;19.95;;;7.00;99.90;;;;;;4466772;27;655451;-64
2020/12/23 03:18:00;;;;;;;36.70;19.40;;;7.00;99.90;;;;;;4495948;27;656573;-62
2020/12/23 03:20:47;;;;;;;34.50;19.30;;;7.10;99.90;;;;;;4478886;27;655434;-65
2020/12/23 03:23:34;;;;;;;33.40;17.83;;;7.20;99.90;;;;;;4499408;27;655754;-63
2020/12/23 03:26:21;;;;;;;33.93;19.73;;;7.10;99.90;;;;;;4492093;27;655257;-62
2020/12/23 03:29:08;;;;;;;38.17;19.93;;;7.20;99.90;;;;;;4483610;27;655745;-63
2020/12/23 03:31:56;;;;;;;39.83;20.90;;;7.20;99.90;;;;;;4492547;27;656271;-62
2020/12/23 03:34:43;;;;;;;29.65;14.55;;;7.20;99.90;;;;;;4463298;27;655717;-62
2020/12/23 03:37:30;;;;;;;28.50;15.73;;;7.20;99.90;;;;;;4492626;27;656594;-63
2020/12/23 03:40:17;;;;;;;34.57;19.13;;;7.30;99.90;;;;;;4458376;27;655358;-65
2020/12/23 03:43:04;;;;;;;37.43;19.40;;;7.20;99.90;;;;;;4504492;27;655422;-63
2020/12/23 03:45:51;;;;;;;30.97;17.90;;;7.20;99.90;;;;;;4478503;27;656064;-63
2020/12/23 03:48:39;;;;;;;33.45;17.50;;;7.30;99.90;;;;;;4479443;27;655279;-62
2020/12/23 03:51:26;;;;;;;33.87;18.33;;;7.40;99.90;;;;;;4479585;27;656361;-62
2020/12/23 03:54:13;;;;;;;29.27;15.50;;;7.40;99.90;;;;;;4479349;27;655742;-63
2020/12/23 03:57:00;;;;;;;34.07;18.40;;;7.30;99.90;;;;;;4488199;27;656762;-63
2020/12/23 03:59:47;;;;;;;40.23;20.50;;;7.30;99.90;;;;;;4485395;27;655441;-65
2020/12/23 04:02:34;;;;;;;40.23;20.60;;;7.30;99.90;;;;;;4492355;27;655258;-62
2020/12/23 04:05:21;;;;;;;42.28;20.77;;;7.30;99.90;;;;;;4497084;27;656083;-63
2020/12/23 04:08:08;;;;;;;37.90;19.87;;;7.20;99.90;;;;;;4462987;27;657640;-62
2020/12/23 04:10:55;;;;;;;44.07;22.90;;;7.30;99.90;;;;;;4491229;27;656042;-63
2020/12/23 04:13:42;;;;;;;46.10;23.57;;;7.10;99.90;;;;;;4470268;27;655571;-64
2020/12/23 04:16:29;;;;;;;44.43;23.73;;;7.00;99.90;;;;;;4508597;27;657100;-62
2020/12/23 04:19:17;;;;;;;46.97;25.93;;;7.00;99.90;;;;;;4483890;27;657243;-64
2020/12/23 04:22:04;;;;;;;45.03;24.80;;;7.00;99.90;;;;;;4493234;27;655226;-62
2020/12/23 04:24:52;;;;;;;44.78;23.70;;;7.00;99.90;;;;;;4483668;27;655657;-65
2020/12/23 04:27:39;;;;;;;40.07;21.60;;;7.10;99.90;;;;;;4496954;27;655076;-63
2020/12/23 04:30:25;;;;;;;43.10;22.70;;;7.20;99.90;;;;;;4490854;27;656888;-62
2020/12/23 04:33:12;;;;;;;35.67;18.40;;;7.20;99.90;;;;;;4471819;27;655769;-63
2020/12/23 04:36:00;;;;;;;39.57;20.63;;;7.30;99.90;;;;;;4499815;27;655847;-62
2020/12/23 04:38:48;;;;;;;35.50;20.50;;;7.30;99.90;;;;;;4471976;27;655101;-63
2020/12/23 04:41:35;;;;;;;34.93;18.97;;;7.20;99.90;;;;;;4503693;27;656294;-63
2020/12/23 04:44:22;;;;;;;37.27;19.43;;;7.20;99.90;;;;;;4458437;27;656732;-64
2020/12/23 04:47:09;;;;;;;31.83;18.35;;;7.20;99.90;;;;;;4499927;27;656275;-62
2020/12/23 04:49:57;;;;;;;33.93;18.20;;;7.30;99.90;;;;;;4475137;27;656280;-64
2020/12/23 04:52:44;;;;;;;31.83;16.90;;;7.20;99.90;;;;;;4499338;27;656153;-62
2020/12/23 04:55:32;;;;;;;34.90;17.20;;;7.30;99.90;;;;;;4494756;27;656924;-62
2020/12/23 04:58:18;;;;;;;33.13;18.00;;;7.30;99.90;;;;;;4457249;27;657963;-63
2020/12/23 05:01:06;;;;;;;33.67;16.93;;;7.40;99.90;;;;;;4502898;27;656699;-63
2020/12/23 05:03:53;;;;;;;35.10;19.63;;;7.40;99.90;;;;;;4469315;27;656872;-62
2020/12/23 05:06:40;;;;;;;34.27;19.67;;;7.40;99.90;;;;;;4503834;27;656532;-62
2020/12/23 05:09:27;;;;;;;23.10;12.27;;;7.30;99.90;;;;;;4470107;27;657052;-63
2020/12/23 05:12:15;;;;;;;39.00;19.93;;;7.40;99.90;;;;;;4502669;27;657596;-63
2020/12/23 05:15:03;;;;;;;42.77;21.30;;;7.50;99.90;;;;;;4469366;27;656682;-63
2020/12/23 05:17:51;;;;;;;39.40;21.43;;;7.40;99.90;;;;;;4495533;27;656253;-63
2020/12/23 05:20:38;;;;;;;35.43;21.23;;;7.40;99.90;;;;;;4470558;27;656576;-63
2020/12/23 05:23:25;;;;;;;41.77;23.23;;;7.50;99.90;;;;;;4495199;27;657523;-62
2020/12/23 05:26:12;;;;;;;44.20;23.17;;;7.40;99.90;;;;;;4466780;27;656972;-65
2020/12/23 05:29:00;;;;;;;37.08;18.83;;;7.40;99.90;;;;;;4499619;27;657011;-63
2020/12/23 05:31:47;;;;;;;38.90;22.47;;;7.40;99.90;;;;;;4469178;27;656807;-65
2020/12/23 05:34:34;;;;;;;42.60;23.70;;;7.50;99.90;;;;;;4483278;27;656811;-63
2020/12/23 05:37:22;;;;;;;42.83;22.63;;;7.40;99.90;;;;;;4497083;27;656332;-65
2020/12/23 05:40:08;;;;;;;35.27;20.53;;;7.40;99.90;;;;;;4496731;27;656740;-63
2020/12/23 05:42:57;;;;;;;28.47;16.20;;;7.60;99.90;;;;;;4495002;27;657328;-62
2020/12/23 05:45:45;;;;;;;37.17;20.43;;;7.80;99.90;;;;;;4475857;27;657707;-63
2020/12/23 05:48:32;;;;;;;39.60;20.77;;;7.70;99.90;;;;;;4482472;27;656487;-64
2020/12/23 05:51:19;;;;;;;41.63;22.63;;;7.70;99.90;;;;;;4502760;27;657886;-63
2020/12/23 05:54:07;;;;;;;36.60;21.43;;;7.70;99.90;;;;;;4479106;27;656771;-65
2020/12/23 05:56:54;;;;;;;38.10;21.10;;;7.70;99.90;;;;;;4503730;27;656425;-63
2020/12/23 05:59:41;;;;;;;21.70;12.13;;;7.60;99.90;;;;;;4481155;27;657079;-63
2020/12/23 06:02:29;;;;;;;41.10;22.63;;;7.80;99.90;;;;;;4477156;27;656760;-64
2020/12/23 06:05:16;;;;;;;46.10;24.63;;;7.70;99.90;;;;;;4477612;27;657233;-63
2020/12/23 06:08:03;;;;;;;48.73;25.30;;;7.60;99.90;;;;;;4478638;27;656545;-64
2020/12/23 06:10:51;;;;;;;39.73;23.50;;;7.60;99.90;;;;;;4480997;27;656998;-63
2020/12/23 06:13:42;;;;;;;38.70;22.80;;;7.60;99.90;;;;;;4479098;27;656668;-64
2020/12/23 06:16:30;;;;;;;45.33;23.53;;;7.60;99.90;;;;;;4475667;27;657628;-63
2020/12/23 06:19:28;;;;;;;40.03;21.63;;;7.60;99.90;;;;;;4478749;27;657543;-65
2020/12/23 06:22:15;;;;;;;44.03;21.80;;;7.50;99.90;;;;;;4473573;27;657265;-63
2020/12/23 06:25:02;;;;;;;41.87;21.77;;;7.50;99.90;;;;;;4466322;27;656626;-64
2020/12/23 06:27:52;;;;;;;29.37;13.93;;;7.50;99.90;;;;;;4500809;27;656957;-63
2020/12/23 06:30:40;;;;;;;38.20;20.42;;;7.50;99.90;;;;;;4455154;27;657526;-63
2020/12/23 06:33:27;;;;;;;34.43;17.57;;;7.50;99.90;;;;;;4476042;27;657008;-64
2020/12/23 06:36:15;;;;;;;35.40;17.77;;;7.70;99.90;;;;;;4478140;27;657708;-63
2020/12/23 06:39:34;;;;;;;31.57;16.83;;;7.80;99.90;;;;;;4470455;27;656565;-64
2020/12/23 06:42:26;;;;;;;33.90;18.40;;;7.80;99.90;;;;;;4468145;27;656362;-65
2020/12/23 06:45:13;;;;;;;35.03;19.47;;;7.70;99.90;;;;;;4464556;27;656526;-63
2020/12/23 06:48:14;;;;;;;33.30;18.30;;;7.70;99.90;;;;;;4489453;27;656650;-64
2020/12/23 06:51:02;;;;;;;38.10;18.85;;;7.70;99.90;;;;;;4468881;27;656460;-64
2020/12/23 06:53:49;;;;;;;31.27;16.77;;;7.80;99.90;;;;;;4489121;27;656524;-63
2020/12/23 06:56:46;;;;;;;31.50;15.03;;;7.70;99.90;;;;;;4475925;27;656478;-66
2020/12/23 06:59:48;;;;;;;33.33;17.33;;;7.60;99.90;;;;;;4458068;27;657727;-63
2020/12/23 07:02:42;;;;;;;28.57;15.53;;;7.60;99.90;;;;;;4469017;27;657638;-63
2020/12/23 07:05:37;;;;;;;29.20;14.63;;;7.80;99.90;;;;;;4452928;27;657836;-63
2020/12/23 07:08:24;;;;;;;27.67;13.90;;;7.80;99.90;;;;;;4479206;27;656549;-64
2020/12/23 07:11:12;;;;;;;35.40;17.87;;;7.90;99.90;;;;;;4491210;27;656868;-63
2020/12/23 07:13:59;;;;;;;35.20;17.33;;;7.90;99.90;;;;;;4474282;27;658632;-63
2020/12/23 07:17:04;;;;;;;37.33;18.80;;;7.80;99.90;;;;;;4494652;27;656804;-64
2020/12/23 07:19:51;;;;;;;37.00;17.23;;;7.70;99.90;;;;;;4480760;27;656975;-63
2020/12/23 07:22:38;;;;;;;40.27;20.77;;;7.70;99.90;;;;;;4469145;27;657013;-64
2020/12/23 07:25:27;;;;;;;45.70;19.43;;;7.70;99.90;;;;;;4490212;27;657453;-63
2020/12/23 07:28:16;;;;;;;41.23;19.33;;;7.70;99.90;;;;;;4476227;27;657495;-63
2020/12/23 07:31:03;;;;;;;44.77;20.53;;;7.60;99.90;;;;;;4477207;27;656743;-63
2020/12/23 07:33:50;;;;;;;43.25;19.73;;;7.80;99.90;;;;;;4496198;27;657698;-62
2020/12/23 07:36:37;;;;;;;40.47;19.37;;;8.00;99.90;;;;;;4471696;27;656498;-63
2020/12/23 07:39:23;;;;;;;42.33;20.63;;;7.80;99.90;;;;;;4496626;27;658099;-63
2020/12/23 07:42:10;;;;;;;43.27;20.20;;;7.70;99.90;;;;;;4489766;27;657020;-62
2020/12/23 07:44:58;;;;;;;51.57;21.73;;;7.70;99.90;;;;;;4475090;27;657515;-63
2020/12/23 07:47:52;;;;;;;43.67;18.17;;;7.70;99.90;;;;;;4490952;27;656258;-62
2020/12/23 07:50:40;;;;;;;42.50;20.07;;;7.80;99.90;;;;;;4480747;27;656833;-62
2020/12/23 07:53:28;;;;;;;39.93;19.70;;;7.90;99.90;;;;;;4477764;27;656656;-63
2020/12/23 07:56:15;;;;;;;56.70;22.00;;;7.80;99.90;;;;;;4474307;28;657509;-63
2020/12/23 07:59:02;;;;;;;54.10;21.97;;;7.80;99.90;;;;;;4452121;27;656317;-63
2020/12/23 08:01:50;;;;;;;47.55;21.08;;;7.90;99.90;;;;;;4475018;27;657212;-63
2020/12/23 08:04:37;;;;;;;53.93;22.40;;;8.00;99.90;;;;;;4466287;27;656577;-63
2020/12/23 08:07:24;;;;;;;51.60;21.07;;;8.00;99.90;;;;;;4469633;27;656035;-63
2020/12/23 08:10:12;;;;;;;55.45;22.50;;;8.00;99.90;;;;;;4470673;27;656526;-63
2020/12/23 08:13:01;;;;;;;52.37;21.93;;;8.00;99.90;;;;;;4452445;27;657545;-62
2020/12/23 08:15:48;;;;;;;59.27;25.00;;;8.20;99.90;;;;;;4468109;27;656796;-63
2020/12/23 08:18:36;;;;;;;80.10;30.03;;;8.30;99.90;;;;;;4478192;27;657056;-63
2020/12/23 08:21:23;;;;;;;102.33;31.10;;;8.30;99.90;;;;;;4446604;27;656771;-63
2020/12/23 08:24:09;;;;;;;91.23;29.57;;;8.30;99.90;;;;;;4484096;27;658950;-62
2020/12/23 08:26:57;;;;;;;84.77;31.47;;;8.10;99.90;;;;;;4450952;27;656481;-64
2020/12/23 08:29:44;;;;;;;77.53;28.37;;;8.00;99.90;;;;;;4471358;27;656918;-63
2020/12/23 08:32:54;;;;;;;63.60;24.33;;;7.90;99.90;;;;;;4475487;27;657117;-62
2020/12/23 08:35:42;;;;;;;60.13;24.37;;;7.80;99.90;;;;;;4438743;27;657130;-63
2020/12/23 08:38:30;;;;;;;56.30;23.63;;;7.80;99.90;;;;;;4454258;27;657670;-62
2020/12/23 08:41:18;;;;;;;50.23;20.63;;;7.80;99.90;;;;;;4454308;27;657029;-63
2020/12/23 08:44:05;;;;;;;41.33;18.63;;;7.90;99.90;;;;;;4486200;27;657940;-62
2020/12/23 08:46:52;;;;;;;39.53;18.23;;;8.10;99.90;;;;;;4459424;27;656795;-63
2020/12/23 08:49:43;;;;;;;44.60;19.33;;;8.30;99.90;;;;;;4483188;27;657322;-63
2020/12/23 08:52:31;;;;;;;48.87;20.83;;;8.20;99.90;;;;;;4458759;27;657139;-62
2020/12/23 08:55:19;;;;;;;47.80;21.03;;;8.20;99.90;;;;;;4467775;27;657527;-63
2020/12/23 08:58:06;;;;;;;50.90;21.63;;;8.20;99.90;;;;;;4496497;27;657007;-62
2020/12/23 09:01:00;;;;;;;54.33;22.07;;;8.10;99.90;;;;;;4466205;27;658403;-63
2020/12/23 09:03:59;;;;;;;66.23;25.87;;;8.10;99.90;;;;;;4448225;27;657100;-63
2020/12/23 09:06:49;;;;;;;63.70;25.50;;;8.00;99.90;;;;;;4455741;27;656196;-63
2020/12/23 09:09:38;;;;;;;48.67;21.87;;;8.00;99.90;;;;;;4493346;27;656271;-63
2020/12/23 09:12:25;;;;;;;51.63;22.43;;;8.00;99.90;;;;;;4495980;27;657712;-63
2020/12/23 09:15:15;;;;;;;80.43;32.93;;;8.00;99.90;;;;;;4458947;27;656720;-63
2020/12/23 09:18:09;;;;;;;87.60;36.23;;;8.10;99.90;;;;;;4476557;27;656819;-64
2020/12/23 09:20:59;;;;;;;75.77;33.00;;;8.00;99.90;;;;;;4460007;27;656307;-62
2020/12/23 09:23:46;;;;;;;82.43;33.10;;;8.00;99.90;;;;;;4480218;27;657153;-63
2020/12/23 09:26:34;;;;;;;56.87;26.23;;;8.00;99.90;;;;;;4471210;27;656525;-63
2020/12/23 09:29:21;;;;;;;61.53;28.23;;;8.20;99.90;;;;;;4494263;27;656548;-63
2020/12/23 09:32:08;;;;;;;79.73;31.97;;;8.10;99.90;;;;;;4468907;27;656527;-62
2020/12/23 09:35:00;;;;;;;38.43;18.43;;;8.10;99.90;;;;;;4500697;27;658108;-62
2020/12/23 09:37:48;;;;;;;38.57;17.70;;;8.40;99.90;;;;;;4450207;27;656700;-63
2020/12/23 09:40:35;;;;;;;41.00;18.43;;;8.30;99.90;;;;;;4502035;27;657354;-63
2020/12/23 09:43:25;;;;;;;36.53;16.37;;;8.30;99.90;;;;;;4465354;27;656624;-64
2020/12/23 09:46:12;;;;;;;66.03;21.60;;;8.30;99.90;;;;;;4470500;27;656662;-63
2020/12/23 09:48:59;;;;;;;72.10;25.03;;;8.20;99.90;;;;;;4485601;27;657266;-63
2020/12/23 09:51:48;;;;;;;77.67;27.97;;;8.10;99.90;;;;;;4482660;27;656401;-63
2020/12/23 09:54:35;;;;;;;69.33;25.70;;;8.10;99.90;;;;;;4496100;27;656800;-63
2020/12/23 09:57:22;;;;;;;62.70;23.20;;;8.00;99.90;;;;;;4477975;27;657156;-63
2020/12/23 10:00:10;;;;;;;72.03;23.70;;;8.10;99.90;;;;;;4491741;27;656081;-63
2020/12/23 10:02:57;;;;;;;53.10;21.77;;;8.20;99.90;;;;;;4460697;27;656568;-63
2020/12/23 10:05:44;;;;;;;48.23;20.67;;;8.10;99.90;;;;;;4498940;27;656252;-63
2020/12/23 10:08:31;;;;;;;47.72;19.13;;;8.20;99.90;;;;;;4481717;27;656762;-63
2020/12/23 10:11:18;;;;;;;43.87;18.53;;;8.30;99.90;;;;;;4471078;27;657336;-63
2020/12/23 10:14:05;;;;;;;62.53;23.57;;;8.20;99.90;;;;;;4481901;27;657234;-62
2020/12/23 10:16:53;;;;;;;54.20;22.30;;;8.20;99.90;;;;;;4481538;27;656561;-64
2020/12/23 10:19:40;;;;;;;35.53;15.10;;;8.30;99.90;;;;;;4481467;27;658286;-63
2020/12/23 10:22:27;;;;;;;29.60;13.60;;;8.40;99.90;;;;;;4480223;27;656791;-63
2020/12/23 10:25:14;;;;;;;28.33;13.73;;;8.50;99.90;;;;;;4505378;27;657078;-63
2020/12/23 10:28:01;;;;;;;26.40;13.23;;;8.50;99.90;;;;;;4497791;27;656727;-63
2020/12/23 10:30:48;;;;;;;29.33;14.80;;;8.50;99.90;;;;;;4470372;27;656956;-64
2020/12/23 10:33:36;;;;;;;45.33;16.23;;;8.70;99.90;;;;;;4485022;27;657622;-64
2020/12/23 10:36:23;;;;;;;122.73;24.77;;;8.60;99.90;;;;;;4473089;27;657293;-63
2020/12/23 10:39:10;;;;;;;183.02;24.45;;;8.60;99.90;;;;;;4494597;27;658715;-63
2020/12/23 10:41:57;;;;;;;165.53;28.77;;;8.50;99.90;;;;;;4472390;27;657844;-64
2020/12/23 10:44:44;;;;;;;88.90;22.85;;;8.50;99.90;;;;;;4494381;27;658302;-63
2020/12/23 10:47:31;;;;;;;42.87;17.03;;;8.50;99.90;;;;;;4489155;27;657238;-63
2020/12/23 10:50:19;;;;;;;48.97;16.97;;;8.60;99.90;;;;;;4468026;27;656627;-63
2020/12/23 10:53:06;;;;;;;30.43;13.63;;;8.50;99.90;;;;;;4490881;27;656175;-62
2020/12/23 10:55:53;;;;;;;25.10;12.20;;;8.50;99.90;;;;;;4475436;27;656562;-63
2020/12/23 10:58:40;;;;;;;28.60;13.43;;;8.50;99.90;;;;;;4489166;27;657672;-63
2020/12/23 11:01:27;;;;;;;23.27;10.70;;;8.50;99.90;;;;;;4469503;27;656596;-63
2020/12/23 11:04:15;;;;;;;20.85;9.90;;;8.50;99.90;;;;;;4491080;27;657410;-63
2020/12/23 11:07:03;;;;;;;21.27;10.43;;;8.50;99.90;;;;;;4471038;27;655487;-64
2020/12/23 11:09:50;;;;;;;20.08;10.18;;;8.50;99.90;;;;;;4489142;27;657776;-63
2020/12/23 11:12:37;;;;;;;26.23;12.13;;;8.70;99.90;;;;;;4477157;27;656495;-64
2020/12/23 11:15:24;;;;;;;24.03;13.30;;;8.60;99.90;;;;;;4481774;27;658355;-63
2020/12/23 11:18:11;;;;;;;30.60;15.40;;;8.70;99.90;;;;;;4496226;27;656768;-63
2020/12/23 11:20:58;;;;;;;26.50;12.60;;;8.70;99.90;;;;;;4473959;27;656442;-63
2020/12/23 11:23:46;;;;;;;28.73;15.37;;;8.70;99.90;;;;;;4494937;27;658268;-63
2020/12/23 11:26:33;;;;;;;17.17;6.93;;;8.70;99.90;;;;;;4473232;27;656765;-63
2020/12/23 11:29:20;;;;;;;33.30;15.90;;;8.80;99.90;;;;;;4506035;27;656199;-63
2020/12/23 11:32:07;;;;;;;28.97;14.80;;;8.70;99.90;;;;;;4471053;27;656567;-63
2020/12/23 11:34:54;;;;;;;24.97;12.67;;;8.70;99.90;;;;;;4485432;27;657844;-63
2020/12/23 11:37:40;;;;;;;24.03;12.27;;;8.70;99.90;;;;;;4490846;27;657005;-63
2020/12/23 11:40:28;;;;;;;23.23;12.27;;;8.70;99.90;;;;;;4468121;27;656644;-63
2020/12/23 11:43:15;;;;;;;26.80;12.40;;;8.70;99.90;;;;;;4503843;27;657768;-62
2020/12/23 11:46:02;;;;;;;22.00;12.17;;;8.70;99.90;;;;;;4477048;27;656520;-63
2020/12/23 11:48:49;;;;;;;21.87;12.03;;;8.70;99.90;;;;;;4493593;27;658038;-63
2020/12/23 11:51:37;;;;;;;26.50;13.47;;;8.70;99.90;;;;;;4485341;27;657356;-63
2020/12/23 11:54:24;;;;;;;26.43;11.97;;;8.70;99.90;;;;;;4481342;27;657979;-62
2020/12/23 11:57:11;;;;;;;32.40;15.13;;;8.60;99.90;;;;;;4494827;27;656973;-63
2020/12/23 11:59:58;;;;;;;36.90;17.37;;;8.70;99.90;;;;;;4457805;27;658360;-63
2020/12/23 12:02:45;;;;;;;42.17;18.87;;;8.50;99.90;;;;;;4491604;27;656256;-63
2020/12/23 12:05:32;;;;;;;41.97;19.23;;;8.50;99.90;;;;;;4466755;27;657453;-63
2020/12/23 12:08:19;;;;;;;50.17;20.90;;;8.40;99.90;;;;;;4503022;27;658118;-63
2020/12/23 12:11:07;;;;;;;46.37;17.33;;;8.50;99.90;;;;;;4470150;27;656670;-64
2020/12/23 12:13:54;;;;;;;54.93;21.50;;;8.60;99.90;;;;;;4488374;27;657677;-62
2020/12/23 12:16:44;;;;;;;48.85;21.50;;;8.70;99.90;;;;;;4462339;27;656661;-64
2020/12/23 12:19:32;;;;;;;50.27;20.63;;;8.70;99.90;;;;;;4474152;27;656623;-64
2020/12/23 12:22:18;;;;;;;56.13;20.23;;;8.70;99.90;;;;;;4496781;27;658476;-63
2020/12/23 12:25:05;;;;;;;54.00;19.37;;;8.60;99.90;;;;;;4497953;27;656441;-62
2020/12/23 12:27:52;;;;;;;60.70;22.67;;;8.70;99.90;;;;;;4470097;27;656672;-63
2020/12/23 12:30:40;;;;;;;52.20;21.33;;;8.60;99.90;;;;;;4500154;27;656906;-63
2020/12/23 12:33:27;;;;;;;44.80;18.20;;;8.50;99.90;;;;;;4469443;27;657212;-63
2020/12/23 12:36:14;;;;;;;49.40;18.70;;;8.60;99.90;;;;;;4485205;27;656724;-63
2020/12/23 12:39:02;;;;;;;38.40;16.33;;;8.80;99.90;;;;;;4472250;27;656381;-64
2020/12/23 12:41:49;;;;;;;42.78;18.27;;;8.80;99.90;;;;;;4495108;27;656093;-62
2020/12/23 12:44:36;;;;;;;46.00;18.60;;;8.80;99.90;;;;;;4488785;27;657505;-63
2020/12/23 12:47:23;;;;;;;43.70;18.13;;;8.70;99.90;;;;;;4461721;27;657278;-63
2020/12/23 12:50:10;;;;;;;36.20;16.07;;;8.70;99.90;;;;;;4488611;27;656406;-62
2020/12/23 12:52:57;;;;;;;34.77;14.53;;;8.60;99.90;;;;;;4475195;27;656584;-64
2020/12/23 12:55:44;;;;;;;40.60;16.20;;;8.60;99.90;;;;;;4490228;27;657081;-62
2020/12/23 12:58:32;;;;;;;37.85;15.38;;;8.70;99.90;;;;;;4480643;27;656675;-63
2020/12/23 13:01:39;;;;;;;40.97;17.23;;;8.70;99.90;;;;;;4493401;27;657319;-63
2020/12/23 13:04:27;;;;;;;37.10;16.30;;;8.60;99.90;;;;;;4450650;27;656998;-63
2020/12/23 13:07:14;;;;;;;33.57;16.13;;;8.70;99.90;;;;;;4472616;27;658351;-63
2020/12/23 13:10:02;;;;;;;37.27;15.23;;;8.70;99.90;;;;;;4494624;27;656376;-64
2020/12/23 13:12:49;;;;;;;36.27;16.23;;;8.60;99.90;;;;;;4490364;27;656513;-62
2020/12/23 13:15:35;;;;;;;41.03;17.77;;;8.50;99.90;;;;;;4493861;27;656818;-63
2020/12/23 13:18:22;;;;;;;34.53;16.17;;;8.40;99.90;;;;;;4469999;27;656970;-63
2020/12/23 13:21:12;;;;;;;45.23;17.83;;;8.60;99.90;;;;;;4499315;27;658218;-63
2020/12/23 13:23:59;;;;;;;40.30;16.67;;;8.60;99.90;;;;;;4476234;27;657374;-63
2020/12/23 13:26:49;;;;;;;40.20;17.87;;;8.50;99.90;;;;;;4494531;27;656716;-62
2020/12/23 13:29:36;;;;;;;40.63;17.30;;;8.50;99.90;;;;;;4471433;27;656431;-62
2020/12/23 13:32:23;;;;;;;42.37;18.80;;;8.70;99.90;;;;;;4466713;27;656550;-62
2020/12/23 13:35:12;;;;;;;36.50;16.90;;;8.70;99.90;;;;;;4495857;27;657366;-63
2020/12/23 13:38:00;;;;;;;47.37;19.90;;;8.80;99.90;;;;;;4468698;27;657940;-62
2020/12/23 13:41:00;;;;;;;47.70;21.00;;;8.80;99.90;;;;;;4481130;27;656659;-64
2020/12/23 13:43:47;;;;;;;48.63;23.67;;;8.70;99.90;;;;;;4469363;27;656911;-63
2020/12/23 13:46:34;;;;;;;59.40;25.40;;;8.50;99.90;;;;;;4498598;27;657509;-62
2020/12/23 13:49:22;;;;;;;65.80;28.43;;;8.30;99.90;;;;;;4485630;27;656343;-64
2020/12/23 13:52:10;;;;;;;78.07;33.30;;;8.20;99.90;;;;;;4492937;27;657246;-63
2020/12/23 13:55:01;;;;;;;101.53;37.13;;;8.10;99.90;;;;;;4471214;27;656695;-63
2020/12/23 13:57:49;;;;;;;91.07;36.43;;;8.10;99.90;;;;;;4468830;27;659445;-63
2020/12/23 14:00:36;;;;;;;97.13;36.13;;;8.10;99.90;;;;;;4490583;27;656538;-63
2020/12/23 14:03:23;;;;;;;100.40;35.90;;;8.10;99.90;;;;;;4471863;27;656580;-63
2020/12/23 14:06:10;;;;;;;99.73;34.83;;;8.10;99.90;;;;;;4496609;27;658497;-63
2020/12/23 14:08:57;;;;;;;85.70;29.80;;;8.00;99.90;;;;;;4465778;27;657007;-63